Terminal Aerodrome Forecast
Issued by NWS

Home | Current Version | Previous Version | Text Only | Print | Product List | Glossary On
Versions: 1 2 3 4 5 6 7 8 9 10 11 12 13 14 15 16 17 18 19 20 21 22 23 24
000
FTUS44 KEWX 261508 AAD
TAFSSF
TAF AMD
KSSF 261508Z 2615/2712 16010KT P6SM SCT015 OVC035
      TEMPO 2615/2617 BKN020
     FM261700 16010KT P6SM VCSH BKN025 OVC035
     FM262100 17012KT P6SM VCTS SCT035CB BKN100
     FM270600 13010KT P6SM OVC015
     FM270900 16012KT P6SM OVC007=

USA.gov is the U.S. government's official web portal to all federal, state and local government web resources and services.